Time;durP1;ratioP1;P1;durP2;ratioP2;P2;SDS_P1;SDS_P2;PMS_P1;PMS_P2;Temp;Humidity;BMP_temperature;BMP_pressure;BME280_temperature;BME280_humidity;BME280_pressure;Samples;Min_cycle;Max_cycle;Signal;HPM_P1;HPM_P2
2022/03/29 00:01:06;;;;;;;33.85;16.02;;;8.30;99.90;;;;;;4898029;29;20402;-85
2022/03/29 00:03:31;;;;;;;34.58;17.05;;;8.40;99.90;;;;;;4896909;29;20060;-85
2022/03/29 00:05:57;;;;;;;29.20;15.35;;;8.50;99.90;;;;;;4866897;29;20052;-85
2022/03/29 00:08:23;;;;;;;29.55;15.55;;;8.20;99.90;;;;;;4863030;29;20052;-84
2022/03/29 00:10:48;;;;;;;29.35;15.93;;;8.50;99.90;;;;;;4863074;29;20112;-84
2022/03/29 00:13:14;;;;;;;30.48;15.13;;;8.30;99.90;;;;;;4889447;29;20040;-85
2022/03/29 00:15:40;;;;;;;33.38;16.05;;;8.20;99.90;;;;;;4908834;29;20052;-85
2022/03/29 00:18:06;;;;;;;32.97;15.93;;;8.20;99.90;;;;;;4897060;29;20049;-85
2022/03/29 00:20:31;;;;;;;27.83;15.27;;;8.10;99.90;;;;;;4881598;29;20087;-85
2022/03/29 00:22:57;;;;;;;29.35;15.98;;;8.10;99.90;;;;;;4894492;29;20045;-85
2022/03/29 00:25:23;;;;;;;33.00;16.17;;;8.10;99.90;;;;;;4863261;29;20451;-85
2022/03/29 00:27:49;;;;;;;29.38;16.27;;;8.30;99.90;;;;;;4892718;29;20108;-85
2022/03/29 00:30:16;;;;;;;31.83;17.00;;;8.10;99.90;;;;;;4894494;29;20459;-85
2022/03/29 00:32:45;;;;;;;30.15;15.77;;;8.20;99.90;;;;;;4893895;29;20061;-85
2022/03/29 00:35:11;;;;;;;30.48;16.70;;;8.20;99.90;;;;;;4884333;29;20561;-85
2022/03/29 00:37:42;;;;;;;30.02;15.60;;;8.20;99.90;;;;;;4880018;29;20040;-84
2022/03/29 00:40:11;;;;;;;34.67;18.00;;;8.20;99.90;;;;;;4897533;29;20442;-85
2022/03/29 00:42:38;;;;;;;35.35;17.60;;;8.10;99.90;;;;;;4911401;29;20402;-84
2022/03/29 00:45:04;;;;;;;34.45;19.35;;;8.10;99.90;;;;;;4878876;29;20064;-82
2022/03/29 00:47:30;;;;;;;41.45;22.65;;;8.00;99.90;;;;;;4912668;29;20063;-84
2022/03/29 00:49:56;;;;;;;44.75;24.13;;;8.20;99.90;;;;;;4908320;29;20048;-83
2022/03/29 00:52:22;;;;;;;45.60;23.23;;;8.00;99.90;;;;;;4897263;29;20498;-83
2022/03/29 00:54:48;;;;;;;44.40;24.00;;;8.10;99.90;;;;;;4912492;29;20130;-83
2022/03/29 00:57:15;;;;;;;46.28;24.85;;;8.10;99.90;;;;;;4880850;29;20044;-83
2022/03/29 00:59:43;;;;;;;52.20;26.45;;;8.10;99.90;;;;;;4894294;29;20052;-83
2022/03/29 01:02:09;;;;;;;48.00;25.40;;;8.20;99.90;;;;;;4906610;29;20078;-83
2022/03/29 01:04:34;;;;;;;46.97;24.42;;;7.90;99.90;;;;;;4915600;29;20135;-82
2022/03/29 01:07:00;;;;;;;48.00;25.75;;;7.90;99.90;;;;;;4909439;29;20509;-83
2022/03/29 01:09:27;;;;;;;49.90;25.63;;;7.80;99.90;;;;;;4881967;29;20044;-83
2022/03/29 01:11:53;;;;;;;49.88;27.30;;;7.80;99.90;;;;;;4864774;29;20056;-83
2022/03/29 01:14:20;;;;;;;;;;;7.70;99.90;;;;;;4882435;29;20044;-83
2022/03/29 01:19:31;;;;;;;43.10;23.48;;;7.70;99.90;;;;;;4883674;29;20053;-83
2022/03/29 01:22:02;;;;;;;40.58;21.25;;;7.60;99.90;;;;;;4897164;29;20049;-84
2022/03/29 01:24:29;;;;;;;42.38;21.70;;;7.60;99.90;;;;;;4897357;29;20184;-84
2022/03/29 01:26:59;;;;;;;39.60;21.55;;;7.60;99.90;;;;;;4881956;29;20052;-84
2022/03/29 01:29:27;;;;;;;47.90;25.00;;;7.50;99.90;;;;;;4908804;29;20453;-84
2022/03/29 01:31:53;;;;;;;52.17;26.15;;;7.50;99.90;;;;;;4899632;29;20059;-84
2022/03/29 01:34:20;;;;;;;54.28;28.35;;;7.60;99.90;;;;;;4915620;29;20052;-84
2022/03/29 01:36:46;;;;;;;48.15;25.30;;;7.40;99.90;;;;;;4910244;29;20044;-84
2022/03/29 01:39:11;;;;;;;;;;;7.40;99.90;;;;;;4881907;29;20396;-83
2022/03/29 01:41:40;;;;;;;46.72;23.85;;;7.40;99.90;;;;;;4895735;29;19947;-84
2022/03/29 01:44:07;;;;;;;50.65;24.75;;;7.40;99.90;;;;;;4896195;29;20064;-84
2022/03/29 01:46:33;;;;;;;48.65;25.38;;;7.40;99.90;;;;;;4891505;29;20052;-83
2022/03/29 01:49:00;;;;;;;46.22;23.48;;;7.50;99.90;;;;;;4882839;29;20048;-83
2022/03/29 01:51:26;;;;;;;44.63;23.17;;;7.40;99.90;;;;;;4915786;29;20520;-84
2022/03/29 01:53:57;;;;;;;42.63;22.23;;;7.50;99.90;;;;;;4883730;29;20079;-84
2022/03/29 01:56:27;;;;;;;41.08;21.00;;;7.40;99.90;;;;;;4915291;29;20486;-84
2022/03/29 01:58:53;;;;;;;40.22;19.65;;;7.50;99.90;;;;;;4912743;29;20048;-84
2022/03/29 02:01:18;;;;;;;39.55;20.45;;;7.40;99.90;;;;;;4896879;29;20048;-84
2022/03/29 02:03:44;;;;;;;41.08;21.13;;;7.40;99.90;;;;;;4895634;29;20551;-84
2022/03/29 02:06:10;;;;;;;38.70;20.25;;;7.50;99.90;;;;;;4881063;29;20487;-84
2022/03/29 02:08:36;;;;;;;36.90;20.17;;;7.50;99.90;;;;;;4883210;29;20052;-84
2022/03/29 02:11:01;;;;;;;41.25;19.77;;;7.50;99.90;;;;;;4898898;29;20052;-84
2022/03/29 02:13:27;;;;;;;39.97;20.65;;;7.40;99.90;;;;;;4879799;29;20047;-84
2022/03/29 02:15:53;;;;;;;41.55;21.40;;;7.50;99.90;;;;;;4896166;29;20054;-84
2022/03/29 02:18:18;;;;;;;43.80;22.58;;;7.40;99.90;;;;;;4888772;29;20052;-84
2022/03/29 02:20:44;;;;;;;45.55;24.02;;;7.50;99.90;;;;;;4883591;29;20052;-84
2022/03/29 02:23:14;;;;;;;43.92;22.88;;;7.70;99.90;;;;;;4914978;29;20048;-84
2022/03/29 02:25:40;;;;;;;45.40;22.85;;;7.50;99.90;;;;;;4898533;29;20051;-84
2022/03/29 02:28:06;;;;;;;46.45;23.15;;;7.50;99.90;;;;;;4913039;29;20107;-84
2022/03/29 02:30:35;;;;;;;38.97;21.20;;;7.50;99.90;;;;;;4915171;29;20573;-84
2022/03/29 02:33:02;;;;;;;44.40;22.33;;;7.70;99.90;;;;;;4895158;29;20052;-83
2022/03/29 02:35:28;;;;;;;42.83;22.25;;;7.50;99.90;;;;;;4879737;29;20052;-83
2022/03/29 02:37:54;;;;;;;42.80;21.98;;;7.60;99.90;;;;;;4879597;29;20051;-83
2022/03/29 02:40:19;;;;;;;45.72;22.17;;;7.60;99.90;;;;;;4895918;29;20432;-83
2022/03/29 02:42:47;;;;;;;42.85;22.42;;;7.60;99.90;;;;;;4894063;29;20143;-84
2022/03/29 02:45:18;;;;;;;43.00;21.70;;;7.70;99.90;;;;;;4897417;29;20120;-84
2022/03/29 02:47:54;;;;;;;43.25;22.30;;;7.70;99.90;;;;;;4914222;29;20490;-83
2022/03/29 02:50:21;;;;;;;43.70;22.50;;;7.60;99.90;;;;;;4914371;29;20050;-83
2022/03/29 02:52:49;;;;;;;45.58;23.42;;;7.60;99.90;;;;;;4900417;29;20376;-83
2022/03/29 02:55:16;;;;;;;43.65;22.52;;;7.70;99.90;;;;;;4895689;29;20100;-83
2022/03/29 02:57:43;;;;;;;42.13;21.08;;;7.70;99.90;;;;;;4893671;29;20148;-84
2022/03/29 03:00:11;;;;;;;40.08;21.70;;;7.70;99.90;;;;;;4895691;29;20427;-84
2022/03/29 03:02:37;;;;;;;41.30;21.90;;;7.70;99.90;;;;;;4895552;29;20052;-84
2022/03/29 03:05:03;;;;;;;39.53;20.30;;;7.70;99.90;;;;;;4879275;29;20063;-84
2022/03/29 03:07:29;;;;;;;44.60;20.95;;;7.70;99.90;;;;;;4882702;29;20139;-84
2022/03/29 03:09:55;;;;;;;41.17;20.65;;;7.70;99.90;;;;;;4913635;29;20095;-84
2022/03/29 03:12:21;;;;;;;40.10;20.05;;;8.10;99.90;;;;;;4912950;29;20048;-84
2022/03/29 03:14:48;;;;;;;37.88;19.88;;;7.60;99.90;;;;;;4897487;29;20379;-84
2022/03/29 03:17:13;;;;;;;40.92;20.50;;;7.60;99.90;;;;;;4914106;29;20044;-83
2022/03/29 03:19:39;;;;;;;39.13;20.58;;;7.70;99.90;;;;;;4912952;29;20542;-84
2022/03/29 03:22:05;;;;;;;35.45;19.08;;;7.60;99.90;;;;;;4878663;29;20044;-84
2022/03/29 03:24:31;;;;;;;37.00;19.80;;;7.60;99.90;;;;;;4914184;29;20380;-84
2022/03/29 03:26:56;;;;;;;40.58;20.63;;;7.70;99.90;;;;;;4896466;29;20056;-83
2022/03/29 03:29:22;;;;;;;40.45;19.83;;;7.60;99.90;;;;;;4913834;29;20095;-84
2022/03/29 03:31:48;;;;;;;36.65;19.33;;;7.60;99.90;;;;;;4897873;29;20134;-84
2022/03/29 03:34:14;;;;;;;37.40;19.58;;;7.60;99.90;;;;;;4913444;29;20048;-84
2022/03/29 03:36:40;;;;;;;;;;;7.60;99.90;;;;;;4914209;29;20062;-84
2022/03/29 03:39:06;;;;;;;41.30;20.70;;;7.70;99.90;;;;;;4913088;29;20297;-83
2022/03/29 03:41:32;;;;;;;38.47;20.58;;;7.60;99.90;;;;;;4882054;29;20059;-84
2022/03/29 03:43:58;;;;;;;39.83;20.15;;;7.60;99.90;;;;;;4896446;29;20090;-84
2022/03/29 03:46:24;;;;;;;36.50;19.15;;;7.70;99.90;;;;;;4913099;29;20518;-83
2022/03/29 03:48:49;;;;;;;;;;;7.70;99.90;;;;;;4893153;29;20135;-83
2022/03/29 03:51:15;;;;;;;36.70;20.35;;;7.70;99.90;;;;;;4913011;29;20029;-84
2022/03/29 03:53:42;;;;;;;38.97;19.50;;;7.60;99.90;;;;;;4901886;29;20045;-83
2022/03/29 03:56:07;;;;;;;33.13;17.90;;;7.60;99.90;;;;;;4878524;29;20040;-84
2022/03/29 03:58:33;;;;;;;34.22;17.83;;;7.70;99.90;;;;;;4893755;29;20115;-84
2022/03/29 04:00:59;;;;;;;34.40;16.83;;;8.10;99.90;;;;;;4863423;29;20689;-84
2022/03/29 04:03:25;;;;;;;31.90;16.45;;;7.70;99.90;;;;;;4894185;29;20048;-84
2022/03/29 04:05:52;;;;;;;35.78;17.85;;;7.60;99.90;;;;;;4910118;29;20048;-83
2022/03/29 04:08:18;;;;;;;36.45;18.60;;;7.70;99.90;;;;;;4897499;29;20135;-84
2022/03/29 04:10:47;;;;;;;35.05;17.92;;;7.50;99.90;;;;;;4913191;29;20055;-84
2022/03/29 04:13:12;;;;;;;35.38;18.05;;;7.50;99.90;;;;;;4896701;29;20091;-84
2022/03/29 04:15:38;;;;;;;35.75;18.27;;;7.50;99.90;;;;;;4913641;29;20079;-83
2022/03/29 04:18:04;;;;;;;36.03;17.48;;;7.50;99.90;;;;;;4896494;29;20149;-84
2022/03/29 04:20:29;;;;;;;36.30;18.40;;;7.50;99.90;;;;;;4897054;29;20052;-84
2022/03/29 04:22:56;;;;;;;40.75;17.77;;;7.50;99.90;;;;;;4901082;29;20071;-83
2022/03/29 04:25:22;;;;;;;33.55;17.73;;;7.50;99.90;;;;;;4897603;29;20111;-83
2022/03/29 04:27:48;;;;;;;;;;;7.50;99.90;;;;;;4912152;29;20193;-83
2022/03/29 04:30:14;;;;;;;32.33;16.45;;;7.50;99.90;;;;;;4913310;29;20018;-83
2022/03/29 04:32:39;;;;;;;32.13;16.98;;;7.50;99.90;;;;;;4881760;29;20048;-84
2022/03/29 04:35:06;;;;;;;37.88;18.15;;;7.60;99.90;;;;;;4916156;29;20391;-84
2022/03/29 04:37:32;;;;;;;33.13;16.77;;;7.60;99.90;;;;;;4900863;29;20051;-84
2022/03/29 04:39:58;;;;;;;;;;;7.60;99.90;;;;;;4901174;29;20566;-84
2022/03/29 04:42:23;;;;;;;35.60;17.33;;;7.60;99.90;;;;;;4900000;29;19967;-84
2022/03/29 04:44:49;;;;;;;36.50;17.42;;;7.60;99.90;;;;;;4900729;29;20059;-83
2022/03/29 04:47:15;;;;;;;34.63;16.98;;;7.60;99.90;;;;;;4900817;29;20074;-84
2022/03/29 04:49:40;;;;;;;36.22;16.83;;;7.60;99.90;;;;;;4916157;29;20052;-83
2022/03/29 04:52:06;;;;;;;34.50;17.08;;;7.60;99.90;;;;;;4916123;29;20059;-83
2022/03/29 04:54:32;;;;;;;37.70;18.08;;;7.60;99.90;;;;;;4900938;29;20498;-83
2022/03/29 04:57:00;;;;;;;38.17;18.55;;;7.60;99.90;;;;;;4898960;29;20490;-83
2022/03/29 04:59:26;;;;;;;33.38;16.73;;;7.60;99.90;;;;;;4882537;29;20054;-84
2022/03/29 05:01:52;;;;;;;;;;;7.60;99.90;;;;;;4897870;29;20060;-83
2022/03/29 05:04:17;;;;;;;33.72;16.67;;;7.60;99.90;;;;;;4897341;29;20021;-83
2022/03/29 05:06:43;;;;;;;35.13;17.58;;;7.60;99.90;;;;;;4897547;29;20049;-83
2022/03/29 05:09:09;;;;;;;32.55;16.80;;;7.60;99.90;;;;;;4879881;29;20053;-83
2022/03/29 05:11:35;;;;;;;35.45;18.25;;;7.60;99.90;;;;;;4915909;29;20044;-83
2022/03/29 05:14:01;;;;;;;38.58;17.77;;;7.60;99.90;;;;;;4915234;29;20487;-84
2022/03/29 05:16:27;;;;;;;;;;;7.60;99.90;;;;;;4916694;29;20103;-83
2022/03/29 05:18:53;;;;;;;30.60;16.20;;;7.60;99.90;;;;;;4899554;29;19927;-83
2022/03/29 05:21:18;;;;;;;39.35;17.88;;;7.60;99.90;;;;;;4897442;29;20044;-83
2022/03/29 05:23:44;;;;;;;30.45;16.48;;;7.60;99.90;;;;;;4881538;29;20056;-84
2022/03/29 05:26:10;;;;;;;32.50;17.52;;;7.60;99.90;;;;;;4896073;29;20041;-84
2022/03/29 05:28:36;;;;;;;;;;;7.60;99.90;;;;;;4865644;29;20111;-84
2022/03/29 05:31:02;;;;;;;33.88;17.60;;;7.60;99.90;;;;;;4896669;29;19927;-83
2022/03/29 05:33:27;;;;;;;31.20;16.02;;;7.60;99.90;;;;;;4896722;29;20056;-84
2022/03/29 05:35:53;;;;;;;37.83;17.25;;;7.70;99.90;;;;;;4881427;29;20052;-83
2022/03/29 05:38:19;;;;;;;35.25;16.83;;;7.60;99.90;;;;;;4881480;29;20080;-84
2022/03/29 05:40:45;;;;;;;32.85;16.30;;;7.60;99.90;;;;;;4881072;29;20083;-84
2022/03/29 05:43:12;;;;;;;35.15;16.52;;;7.70;99.90;;;;;;4879324;29;20217;-84
2022/03/29 05:45:39;;;;;;;34.83;17.88;;;8.30;99.90;;;;;;4885843;29;20143;-84
2022/03/29 05:50:52;;;;;;;35.58;18.02;;;7.60;99.90;;;;;;4915899;29;20177;-84
2022/03/29 05:53:18;;;;;;;35.17;17.85;;;7.60;99.90;;;;;;4914494;29;20127;-83
2022/03/29 05:55:45;;;;;;;;;;;7.60;99.90;;;;;;4915788;29;20060;-83
2022/03/29 05:58:11;;;;;;;39.40;19.10;;;7.60;99.90;;;;;;4896438;29;19927;-83
2022/03/29 06:00:37;;;;;;;;;;;7.90;99.90;;;;;;4881704;29;20056;-83
2022/03/29 06:03:03;;;;;;;38.60;17.08;;;7.60;99.90;;;;;;4895728;29;19934;-83
2022/03/29 06:05:29;;;;;;;;;;;7.50;99.90;;;;;;4897148;29;20052;-84
2022/03/29 06:07:55;;;;;;;35.28;16.80;;;7.50;99.90;;;;;;4884779;29;20395;-85
2022/03/29 06:10:21;;;;;;;33.25;17.08;;;7.50;99.90;;;;;;4883695;29;20056;-83
2022/03/29 06:12:47;;;;;;;35.47;18.02;;;7.50;99.90;;;;;;4897218;29;20054;-84
2022/03/29 06:15:15;;;;;;;33.13;17.20;;;7.60;99.90;;;;;;4895947;29;20758;-84
2022/03/29 06:17:40;;;;;;;39.15;17.23;;;7.60;99.90;;;;;;4880940;29;20159;-84
2022/03/29 06:20:09;;;;;;;34.17;17.42;;;7.60;99.90;;;;;;4895389;29;20120;-83
2022/03/29 06:22:44;;;;;;;33.80;17.88;;;7.70;99.90;;;;;;4889528;29;20057;-83
2022/03/29 06:25:12;;;;;;;34.45;17.85;;;7.70;99.90;;;;;;4895626;29;20483;-83
2022/03/29 06:27:38;;;;;;;33.97;18.20;;;7.70;99.90;;;;;;4894874;29;20058;-83
2022/03/29 06:30:05;;;;;;;43.45;17.75;;;7.80;99.90;;;;;;4895614;29;20052;-83
2022/03/29 06:32:31;;;;;;;37.95;18.85;;;7.70;99.90;;;;;;4883544;29;20083;-83
2022/03/29 06:34:56;;;;;;;35.35;17.88;;;7.80;99.90;;;;;;4899020;29;20091;-83
2022/03/29 06:37:22;;;;;;;34.25;17.42;;;7.70;99.90;;;;;;4888539;29;20099;-84
2022/03/29 06:39:48;;;;;;;38.92;17.95;;;7.80;99.90;;;;;;4880479;29;20156;-84
2022/03/29 06:42:18;;;;;;;38.83;18.27;;;7.70;99.90;;;;;;4878691;29;20131;-84
2022/03/29 06:44:44;;;;;;;38.75;17.98;;;8.00;99.90;;;;;;4878079;29;20561;-84
2022/03/29 06:47:11;;;;;;;38.15;18.23;;;7.70;99.90;;;;;;4906444;29;20060;-84
2022/03/29 06:49:37;;;;;;;39.47;19.23;;;7.70;99.90;;;;;;4888455;29;20546;-83
2022/03/29 06:52:03;;;;;;;33.40;17.88;;;7.70;99.90;;;;;;4897802;29;20051;-83
2022/03/29 06:54:30;;;;;;;38.17;17.77;;;7.70;99.90;;;;;;4906044;29;20187;-82
2022/03/29 06:56:56;;;;;;;40.25;18.30;;;7.70;99.90;;;;;;4878528;29;20048;-83
2022/03/29 06:59:22;;;;;;;44.47;19.85;;;7.80;99.90;;;;;;4901519;29;20107;-83
2022/03/29 07:01:48;;;;;;;36.53;19.00;;;8.00;99.90;;;;;;4914146;29;20188;-83
2022/03/29 07:04:14;;;;;;;40.28;19.85;;;7.80;99.90;;;;;;4913630;29;20056;-83
2022/03/29 07:06:39;;;;;;;46.83;21.77;;;7.90;99.90;;;;;;4883111;29;20115;-84
2022/03/29 07:11:49;;;;;;;42.78;20.85;;;8.00;99.90;;;;;;4899386;29;20052;-83
2022/03/29 07:14:15;;;;;;;43.58;19.60;;;8.10;99.90;;;;;;4897278;29;20459;-82
2022/03/29 07:16:42;;;;;;;48.17;21.33;;;8.20;99.90;;;;;;4895406;29;20060;-84
2022/03/29 07:19:09;;;;;;;44.33;22.58;;;8.30;99.90;;;;;;4898834;29;20044;-84
2022/03/29 07:21:39;;;;;;;44.53;21.45;;;8.30;99.90;;;;;;4898267;29;20055;-83
2022/03/29 07:24:09;;;;;;;44.72;22.67;;;8.40;99.90;;;;;;4912947;29;20048;-84
2022/03/29 07:26:35;;;;;;;43.92;22.05;;;8.40;99.90;;;;;;4907017;29;20060;-83
2022/03/29 07:29:04;;;;;;;44.88;22.92;;;8.40;99.90;;;;;;4913407;29;20062;-84
2022/03/29 07:31:30;;;;;;;45.75;22.75;;;8.40;99.90;;;;;;4898415;29;20052;-84
2022/03/29 07:33:56;;;;;;;;;;;8.60;99.90;;;;;;4913852;29;20514;-84
2022/03/29 07:36:22;;;;;;;45.53;21.63;;;8.60;99.90;;;;;;4888687;29;19931;-84
2022/03/29 07:38:48;;;;;;;47.40;21.70;;;8.70;99.90;;;;;;4895909;29;20052;-83
2022/03/29 07:41:14;;;;;;;44.88;22.17;;;8.80;99.90;;;;;;4863122;29;20056;-84
2022/03/29 07:43:40;;;;;;;;;;;8.80;99.90;;;;;;4894350;29;20092;-84
2022/03/29 07:46:05;;;;;;;45.65;22.25;;;8.90;99.90;;;;;;4897303;29;20050;-84
2022/03/29 07:48:31;;;;;;;46.58;22.98;;;9.00;99.90;;;;;;4910352;29;20087;-83
2022/03/29 07:50:57;;;;;;;48.50;22.92;;;9.00;99.90;;;;;;4913963;29;20054;-84
2022/03/29 07:53:25;;;;;;;43.67;22.15;;;9.10;99.90;;;;;;4912906;29;20473;-83
2022/03/29 07:55:52;;;;;;;43.45;20.85;;;9.10;99.90;;;;;;4882756;29;20087;-84
2022/03/29 07:58:19;;;;;;;45.33;22.48;;;9.00;99.90;;;;;;4908089;29;20052;-83
2022/03/29 08:00:49;;;;;;;47.22;23.27;;;9.00;99.90;;;;;;4887775;29;20055;-85
2022/03/29 08:03:16;;;;;;;45.53;22.83;;;9.00;99.90;;;;;;4897244;29;20060;-84
2022/03/29 08:05:44;;;;;;;49.55;22.10;;;9.00;99.90;;;;;;4897789;29;20615;-84
2022/03/29 08:08:13;;;;;;;44.35;21.70;;;9.00;99.90;;;;;;4891516;29;20041;-84
2022/03/29 08:10:39;;;;;;;45.13;23.02;;;9.10;99.90;;;;;;4888328;29;20048;-84
2022/03/29 08:13:07;;;;;;;47.40;22.75;;;9.60;99.90;;;;;;4893615;29;20451;-84
2022/03/29 08:15:34;;;;;;;55.65;24.63;;;9.30;99.90;;;;;;4894506;29;20104;-84
2022/03/29 08:18:01;;;;;;;46.80;23.13;;;9.40;99.90;;;;;;4895991;29;20048;-84
2022/03/29 08:20:27;;;;;;;45.85;22.42;;;9.60;99.90;;;;;;4909449;29;20057;-84
2022/03/29 08:22:55;;;;;;;;;;;9.60;99.90;;;;;;4908822;29;20135;-85
2022/03/29 08:25:21;;;;;;;41.55;21.48;;;9.70;99.90;;;;;;4895491;29;19923;-84
2022/03/29 08:27:49;;;;;;;51.28;23.58;;;9.70;99.90;;;;;;4877749;29;20084;-86
2022/03/29 08:30:15;;;;;;;49.92;21.52;;;9.80;99.90;;;;;;4901852;29;20064;-84
2022/03/29 08:32:42;;;;;;;46.75;21.23;;;9.80;99.90;;;;;;4901317;29;20078;-84
2022/03/29 08:35:09;;;;;;;43.65;20.90;;;9.80;99.90;;;;;;4889120;29;20048;-84
2022/03/29 08:37:36;;;;;;;43.90;21.35;;;9.90;99.90;;;;;;4903667;29;20057;-85
2022/03/29 08:40:07;;;;;;;43.70;21.20;;;10.00;99.90;;;;;;4901423;29;20058;-81
2022/03/29 08:42:33;;;;;;;44.88;20.00;;;10.10;99.90;;;;;;4892084;29;20088;-82
2022/03/29 08:45:16;;;;;;;47.20;22.13;;;10.20;99.90;;;;;;4895901;29;20090;-82
2022/03/29 08:47:44;;;;;;;46.80;23.40;;;10.10;99.90;;;;;;4884742;29;20537;-82
2022/03/29 08:50:12;;;;;;;46.03;22.85;;;10.10;99.90;;;;;;4878053;29;20111;-82
2022/03/29 08:52:39;;;;;;;51.45;22.52;;;10.10;99.90;;;;;;4903904;29;20056;-82
2022/03/29 08:55:06;;;;;;;42.75;21.98;;;10.20;99.90;;;;;;4908070;29;20124;-82
2022/03/29 08:57:32;;;;;;;45.85;22.73;;;10.10;99.90;;;;;;4884081;29;20233;-81
2022/03/29 08:59:59;;;;;;;;;;;10.10;99.90;;;;;;4897320;29;20076;-82
2022/03/29 09:02:25;;;;;;;44.08;21.35;;;10.10;99.90;;;;;;4908823;29;19923;-82
2022/03/29 09:05:14;;;;;;;47.78;22.33;;;10.20;99.90;;;;;;4896867;29;20446;-81
2022/03/29 09:07:47;;;;;;;45.35;22.67;;;10.20;99.90;;;;;;4900961;29;20059;-83
2022/03/29 09:10:13;;;;;;;50.30;23.05;;;10.30;99.90;;;;;;4912011;29;20060;-82
2022/03/29 09:12:39;;;;;;;52.13;22.48;;;10.40;99.90;;;;;;4893791;29;20071;-82
2022/03/29 09:15:05;;;;;;;42.85;21.48;;;10.50;99.90;;;;;;4893890;29;20494;-82
2022/03/29 09:17:38;;;;;;;48.40;22.48;;;10.60;99.90;;;;;;4896117;29;20055;-82
2022/03/29 09:20:07;;;;;;;50.85;23.20;;;10.60;99.90;;;;;;4915653;29;20051;-82
2022/03/29 09:22:55;;;;;;;48.75;22.20;;;10.70;99.90;;;;;;4915632;29;20059;-84
2022/03/29 09:25:22;;;;;;;43.22;22.25;;;10.70;99.90;;;;;;4915753;29;20541;-84
2022/03/29 09:27:53;;;;;;;43.00;21.42;;;10.70;99.90;;;;;;4898325;29;20052;-84
2022/03/29 09:30:20;;;;;;;42.78;21.23;;;10.70;99.90;;;;;;4881150;29;20064;-84
2022/03/29 09:33:01;;;;;;;49.30;21.58;;;10.60;99.90;;;;;;4881887;29;20053;-84
2022/03/29 09:35:28;;;;;;;48.05;22.20;;;10.60;99.90;;;;;;4897547;29;20475;-84
2022/03/29 09:37:54;;;;;;;53.10;21.98;;;10.50;99.90;;;;;;4896396;29;20048;-84
2022/03/29 09:40:20;;;;;;;44.50;20.85;;;10.40;99.90;;;;;;4881523;29;20463;-85
2022/03/29 09:43:20;;;;;;;43.88;21.33;;;10.40;99.90;;;;;;4879982;29;20063;-84
2022/03/29 09:45:48;;;;;;;43.13;20.77;;;10.50;99.90;;;;;;4850485;29;20052;-84
2022/03/29 09:48:21;;;;;;;40.20;19.98;;;10.50;99.90;;;;;;4896983;29;20060;-84
2022/03/29 09:50:48;;;;;;;45.70;20.70;;;10.50;99.90;;;;;;4866631;29;20091;-84
2022/03/29 09:53:37;;;;;;;51.20;21.13;;;10.50;99.90;;;;;;4897059;29;20470;-84
2022/03/29 09:56:04;;;;;;;40.65;20.02;;;10.50;99.90;;;;;;4883106;29;20063;-85
2022/03/29 09:58:30;;;;;;;48.50;20.27;;;10.60;99.90;;;;;;4898222;29;20044;-84
2022/03/29 10:00:57;;;;;;;40.95;20.38;;;10.70;99.90;;;;;;4897586;29;20056;-84
2022/03/29 10:03:26;;;;;;;;;;;10.70;99.90;;;;;;4881330;29;20056;-85
2022/03/29 10:06:01;;;;;;;41.35;19.67;;;10.70;99.90;;;;;;4897143;29;19970;-84
2022/03/29 10:11:16;;;;;;;40.25;19.48;;;10.80;99.90;;;;;;4896904;29;20056;-84
2022/03/29 10:13:42;;;;;;;41.38;19.95;;;10.90;99.90;;;;;;4879118;29;20084;-83
2022/03/29 10:16:14;;;;;;;39.28;19.92;;;11.00;99.90;;;;;;4878149;29;20123;-84
2022/03/29 10:18:42;;;;;;;38.60;20.23;;;11.20;99.90;;;;;;4904582;29;20053;-85
2022/03/29 10:21:16;;;;;;;40.53;20.58;;;11.30;99.90;;;;;;4896560;29;20052;-84
2022/03/29 10:23:46;;;;;;;39.15;18.83;;;11.30;99.90;;;;;;4905780;29;20060;-86
2022/03/29 10:26:17;;;;;;;33.40;17.65;;;11.50;99.90;;;;;;4914931;29;20135;-84
2022/03/29 10:28:46;;;;;;;42.33;19.70;;;11.50;99.90;;;;;;4912813;29;20418;-82
2022/03/29 10:31:33;;;;;;;40.10;19.08;;;11.60;99.90;;;;;;4914536;29;20123;-83
2022/03/29 10:34:24;;;;;;;36.63;18.10;;;11.70;99.90;;;;;;4910577;29;20047;-83
2022/03/29 10:37:07;;;;;;;35.78;18.23;;;11.80;99.90;;;;;;4896437;29;20079;-82
2022/03/29 10:39:53;;;;;;;36.13;19.05;;;11.80;99.90;;;;;;4911223;29;20066;-83
2022/03/29 10:42:37;;;;;;;40.45;19.02;;;11.90;99.90;;;;;;4897882;29;20136;-83
2022/03/29 10:45:09;;;;;;;37.40;19.00;;;11.90;99.90;;;;;;4896344;29;20072;-84
2022/03/29 10:47:36;;;;;;;40.60;19.38;;;11.90;99.90;;;;;;4897896;29;20052;-83
2022/03/29 10:50:04;;;;;;;40.30;19.77;;;12.00;99.90;;;;;;4914011;29;20063;-84
2022/03/29 10:52:44;;;;;;;36.22;19.10;;;12.30;99.90;;;;;;4910998;29;20398;-84
2022/03/29 10:55:36;;;;;;;34.80;18.38;;;12.60;99.90;;;;;;4912868;29;20056;-84
2022/03/29 10:58:08;;;;;;;36.45;19.13;;;12.90;99.90;;;;;;4894641;29;20063;-84
2022/03/29 11:00:35;;;;;;;33.50;17.60;;;13.10;99.90;;;;;;4914083;29;20055;-83
2022/03/29 11:03:15;;;;;;;39.22;18.92;;;13.10;99.90;;;;;;4909575;29;20048;-84
2022/03/29 11:06:07;;;;;;;38.40;16.77;;;13.00;99.90;;;;;;4881193;29;20136;-84
2022/03/29 11:08:35;;;;;;;37.10;17.25;;;12.90;99.90;;;;;;4895167;29;20092;-84
2022/03/29 11:11:01;;;;;;;36.17;16.50;;;12.70;99.90;;;;;;4895956;29;20131;-84
2022/03/29 11:13:32;;;;;;;34.10;16.38;;;12.60;99.90;;;;;;4883533;29;20570;-84
2022/03/29 11:16:02;;;;;;;35.70;16.10;;;12.60;99.70;;;;;;4902707;29;20124;-84
2022/03/29 11:18:31;;;;;;;35.53;16.30;;;12.70;99.60;;;;;;4884371;29;20510;-84
2022/03/29 11:21:02;;;;;;;32.42;16.23;;;12.70;99.50;;;;;;4902104;29;20056;-83
2022/03/29 11:23:38;;;;;;;34.13;15.50;;;12.70;99.90;;;;;;4903520;29;20052;-84
2022/03/29 11:26:13;;;;;;;30.90;15.88;;;12.80;99.80;;;;;;4912965;29;20090;-84
2022/03/29 11:28:47;;;;;;;35.13;15.68;;;13.00;99.20;;;;;;4912237;29;20052;-83
2022/03/29 11:31:14;;;;;;;28.83;15.65;;;13.20;98.10;;;;;;4894933;29;20040;-83
2022/03/29 11:33:41;;;;;;;30.77;15.40;;;13.40;98.00;;;;;;4912862;29;20083;-83
2022/03/29 11:36:08;;;;;;;31.80;15.65;;;13.60;98.30;;;;;;4913093;29;20062;-83
2022/03/29 11:38:34;;;;;;;;;;;13.80;97.60;;;;;;4913175;29;20494;-83
2022/03/29 11:41:04;;;;;;;28.73;14.95;;;13.90;93.00;;;;;;4909343;29;20382;-83
2022/03/29 11:43:33;;;;;;;33.53;15.55;;;14.10;95.50;;;;;;4899195;29;20048;-84
2022/03/29 11:45:59;;;;;;;33.08;14.60;;;14.10;92.90;;;;;;4901319;29;20095;-84
2022/03/29 11:48:26;;;;;;;28.13;15.13;;;14.20;91.90;;;;;;4875497;29;20079;-82
2022/03/29 11:51:00;;;;;;;32.53;15.43;;;14.30;92.40;;;;;;4893691;29;20075;-83
2022/03/29 11:53:33;;;;;;;28.55;14.88;;;14.50;93.10;;;;;;4896863;29;20040;-84
2022/03/29 11:56:03;;;;;;;31.13;16.02;;;14.70;90.00;;;;;;4897155;29;20056;-83
2022/03/29 11:58:35;;;;;;;29.75;15.27;;;14.70;86.60;;;;;;4909563;29;20140;-83
2022/03/29 12:01:14;;;;;;;30.33;15.65;;;14.90;85.80;;;;;;4913380;29;20056;-83
2022/03/29 12:03:41;;;;;;;32.97;15.35;;;15.00;84.30;;;;;;4912641;29;20055;-83
2022/03/29 12:06:12;;;;;;;33.53;15.48;;;15.20;89.20;;;;;;4887420;29;20053;-83
2022/03/29 12:08:57;;;;;;;30.35;15.82;;;15.50;90.60;;;;;;4905622;29;20055;-83
2022/03/29 12:11:25;;;;;;;29.30;15.15;;;15.90;92.30;;;;;;4912211;29;20143;-85
2022/03/29 12:14:06;;;;;;;31.77;15.95;;;16.30;91.70;;;;;;4912078;29;20052;-85
2022/03/29 12:16:54;;;;;;;30.48;15.68;;;16.70;89.70;;;;;;4913395;29;20115;-84
2022/03/29 12:19:23;;;;;;;32.75;15.43;;;17.00;88.80;;;;;;4897324;29;20044;-84
2022/03/29 12:22:01;;;;;;;28.08;14.27;;;17.10;83.60;;;;;;4898926;29;20053;-84
2022/03/29 12:24:38;;;;;;;32.58;14.88;;;16.90;72.80;;;;;;4894105;29;20052;-84
2022/03/29 12:27:06;;;;;;;29.02;15.30;;;16.80;76.90;;;;;;4906469;29;20100;-84
2022/03/29 12:29:38;;;;;;;29.17;14.77;;;16.70;76.80;;;;;;4906492;29;20052;-85
2022/03/29 12:32:05;;;;;;;24.88;14.55;;;16.90;76.50;;;;;;4909015;29;20055;-84
2022/03/29 12:34:32;;;;;;;29.33;14.48;;;16.90;74.50;;;;;;4913013;29;20135;-85
2022/03/29 12:37:02;;;;;;;28.27;14.63;;;17.00;74.10;;;;;;4893086;29;20822;-85
2022/03/29 12:39:33;;;;;;;26.52;13.75;;;17.20;71.80;;;;;;4879155;29;20131;-85
2022/03/29 12:41:59;;;;;;;26.35;14.13;;;17.60;73.70;;;;;;4877083;29;20052;-85
2022/03/29 12:44:30;;;;;;;;;;;17.80;72.50;;;;;;4883713;29;20059;-85
2022/03/29 12:46:56;;;;;;;27.67;13.43;;;17.80;73.60;;;;;;4893262;29;19923;-85
2022/03/29 12:49:22;;;;;;;30.35;14.00;;;18.10;73.20;;;;;;4893902;29;20052;-84
2022/03/29 12:51:57;;;;;;;26.17;14.07;;;18.50;71.60;;;;;;4893585;29;20143;-85
2022/03/29 12:54:45;;;;;;;27.02;12.93;;;19.00;67.40;;;;;;4897423;29;20510;-85
2022/03/29 12:57:13;;;;;;;27.92;13.40;;;19.20;65.60;;;;;;4896771;29;20108;-84